sensor_id;sensor_type;location;lat;lon;timestamp;P1;durP1;ratioP1;P2;durP2;ratioP2
9445;SDS011;4761;49.490;10.908;2023-01-31T00:00:20;3.03;;;1.70;;
9445;SDS011;4761;49.490;10.908;2023-01-31T00:02:45;2.53;;;1.30;;
9445;SDS011;4761;49.490;10.908;2023-01-31T00:05:11;2.50;;;1.37;;
9445;SDS011;4761;49.490;10.908;2023-01-31T00:07:36;1.77;;;1.20;;
9445;SDS011;4761;49.490;10.908;2023-01-31T00:10:02;2.50;;;1.40;;
9445;SDS011;4761;49.490;10.908;2023-01-31T00:12:28;2.93;;;1.60;;
9445;SDS011;4761;49.490;10.908;2023-01-31T00:14:54;2.10;;;1.37;;
9445;SDS011;4761;49.490;10.908;2023-01-31T00:17:19;2.30;;;1.60;;
9445;SDS011;4761;49.490;10.908;2023-01-31T00:19:45;2.77;;;1.23;;
9445;SDS011;4761;49.490;10.908;2023-01-31T00:22:10;2.80;;;1.93;;
9445;SDS011;4761;49.490;10.908;2023-01-31T00:24:36;3.53;;;1.60;;
9445;SDS011;4761;49.490;10.908;2023-01-31T00:27:01;1.43;;;1.23;;
9445;SDS011;4761;49.490;10.908;2023-01-31T00:29:27;2.30;;;1.40;;
9445;SDS011;4761;49.490;10.908;2023-01-31T00:31:52;2.77;;;1.60;;
9445;SDS011;4761;49.490;10.908;2023-01-31T00:34:18;1.50;;;1.27;;
9445;SDS011;4761;49.490;10.908;2023-01-31T00:36:43;2.23;;;1.40;;
9445;SDS011;4761;49.490;10.908;2023-01-31T00:39:09;2.20;;;1.37;;
9445;SDS011;4761;49.490;10.908;2023-01-31T00:41:36;2.53;;;1.50;;
9445;SDS011;4761;49.490;10.908;2023-01-31T00:44:02;3.80;;;1.70;;
9445;SDS011;4761;49.490;10.908;2023-01-31T00:46:28;2.80;;;1.30;;
9445;SDS011;4761;49.490;10.908;2023-01-31T00:48:54;3.07;;;1.60;;
9445;SDS011;4761;49.490;10.908;2023-01-31T00:51:20;2.47;;;1.20;;
9445;SDS011;4761;49.490;10.908;2023-01-31T00:53:47;2.00;;;1.43;;
9445;SDS011;4761;49.490;10.908;2023-01-31T00:56:15;2.10;;;1.50;;
9445;SDS011;4761;49.490;10.908;2023-01-31T00:58:42;2.97;;;1.60;;
9445;SDS011;4761;49.490;10.908;2023-01-31T01:01:10;2.67;;;1.43;;
9445;SDS011;4761;49.490;10.908;2023-01-31T01:03:40;2.93;;;1.77;;
9445;SDS011;4761;49.490;10.908;2023-01-31T01:06:07;2.13;;;1.50;;
9445;SDS011;4761;49.490;10.908;2023-01-31T01:08:33;3.37;;;1.70;;
9445;SDS011;4761;49.490;10.908;2023-01-31T01:11:06;3.50;;;1.73;;
9445;SDS011;4761;49.490;10.908;2023-01-31T01:13:38;3.17;;;1.60;;
9445;SDS011;4761;49.490;10.908;2023-01-31T01:16:05;2.67;;;1.47;;
9445;SDS011;4761;49.490;10.908;2023-01-31T01:18:32;1.80;;;1.47;;
9445;SDS011;4761;49.490;10.908;2023-01-31T01:21:03;3.20;;;1.80;;
9445;SDS011;4761;49.490;10.908;2023-01-31T01:23:37;2.60;;;1.47;;
9445;SDS011;4761;49.490;10.908;2023-01-31T01:26:04;2.63;;;1.43;;
9445;SDS011;4761;49.490;10.908;2023-01-31T01:28:33;2.43;;;1.50;;
9445;SDS011;4761;49.490;10.908;2023-01-31T01:31:03;1.93;;;1.53;;
9445;SDS011;4761;49.490;10.908;2023-01-31T01:33:32;2.77;;;1.53;;
9445;SDS011;4761;49.490;10.908;2023-01-31T01:35:59;3.63;;;1.60;;
9445;SDS011;4761;49.490;10.908;2023-01-31T01:38:28;2.67;;;1.50;;
9445;SDS011;4761;49.490;10.908;2023-01-31T01:40:54;2.20;;;1.50;;
9445;SDS011;4761;49.490;10.908;2023-01-31T01:43:20;3.33;;;1.80;;
9445;SDS011;4761;49.490;10.908;2023-01-31T01:45:45;4.17;;;1.90;;
9445;SDS011;4761;49.490;10.908;2023-01-31T01:48:12;2.37;;;1.60;;
9445;SDS011;4761;49.490;10.908;2023-01-31T01:50:42;3.13;;;1.70;;
9445;SDS011;4761;49.490;10.908;2023-01-31T01:53:15;4.27;;;1.67;;
9445;SDS011;4761;49.490;10.908;2023-01-31T01:55:52;3.20;;;1.50;;
9445;SDS011;4761;49.490;10.908;2023-01-31T02:00:53;2.60;;;1.50;;
9445;SDS011;4761;49.490;10.908;2023-01-31T02:03:19;3.10;;;1.60;;
9445;SDS011;4761;49.490;10.908;2023-01-31T02:05:46;1.87;;;1.50;;
9445;SDS011;4761;49.490;10.908;2023-01-31T02:08:30;2.90;;;1.70;;
9445;SDS011;4761;49.490;10.908;2023-01-31T02:13:42;1.97;;;1.43;;
9445;SDS011;4761;49.490;10.908;2023-01-31T02:16:10;2.13;;;1.40;;
9445;SDS011;4761;49.490;10.908;2023-01-31T02:18:35;3.37;;;1.50;;
9445;SDS011;4761;49.490;10.908;2023-01-31T02:26:42;2.97;;;1.73;;
9445;SDS011;4761;49.490;10.908;2023-01-31T02:29:20;2.73;;;1.50;;
9445;SDS011;4761;49.490;10.908;2023-01-31T02:32:15;3.40;;;1.50;;
9445;SDS011;4761;49.490;10.908;2023-01-31T02:35:10;3.00;;;1.70;;
9445;SDS011;4761;49.490;10.908;2023-01-31T02:38:04;2.67;;;1.70;;
9445;SDS011;4761;49.490;10.908;2023-01-31T02:43:56;3.53;;;1.60;;
9445;SDS011;4761;49.490;10.908;2023-01-31T02:49:54;3.07;;;1.80;;
9445;SDS011;4761;49.490;10.908;2023-01-31T02:59:29;3.03;;;1.70;;
9445;SDS011;4761;49.490;10.908;2023-01-31T03:01:36;3.83;;;1.60;;
9445;SDS011;4761;49.490;10.908;2023-01-31T03:04:05;2.70;;;1.50;;
9445;SDS011;4761;49.490;10.908;2023-01-31T03:09:07;2.67;;;1.50;;
9445;SDS011;4761;49.490;10.908;2023-01-31T03:11:53;2.57;;;1.50;;
9445;SDS011;4761;49.490;10.908;2023-01-31T03:17:56;2.43;;;1.47;;
9445;SDS011;4761;49.490;10.908;2023-01-31T03:20:36;3.10;;;1.57;;
9445;SDS011;4761;49.490;10.908;2023-01-31T03:23:10;2.13;;;1.50;;
9445;SDS011;4761;49.490;10.908;2023-01-31T03:25:40;3.20;;;1.70;;
9445;SDS011;4761;49.490;10.908;2023-01-31T03:28:08;2.77;;;1.80;;
9445;SDS011;4761;49.490;10.908;2023-01-31T03:30:42;2.87;;;1.47;;
9445;SDS011;4761;49.490;10.908;2023-01-31T03:33:43;2.63;;;1.60;;
9445;SDS011;4761;49.490;10.908;2023-01-31T03:36:15;3.10;;;1.57;;
9445;SDS011;4761;49.490;10.908;2023-01-31T03:39:04;3.50;;;1.73;;
9445;SDS011;4761;49.490;10.908;2023-01-31T03:44:35;2.47;;;1.50;;
9445;SDS011;4761;49.490;10.908;2023-01-31T03:47:14;1.73;;;1.40;;
9445;SDS011;4761;49.490;10.908;2023-01-31T03:49:45;2.40;;;1.47;;
9445;SDS011;4761;49.490;10.908;2023-01-31T03:52:14;3.03;;;1.80;;
9445;SDS011;4761;49.490;10.908;2023-01-31T03:54:48;3.83;;;1.60;;
9445;SDS011;4761;49.490;10.908;2023-01-31T03:57:38;2.77;;;1.30;;
9445;SDS011;4761;49.490;10.908;2023-01-31T04:00:08;4.00;;;1.63;;
9445;SDS011;4761;49.490;10.908;2023-01-31T04:02:39;3.93;;;1.57;;
9445;SDS011;4761;49.490;10.908;2023-01-31T04:07:38;4.23;;;1.60;;
9445;SDS011;4761;49.490;10.908;2023-01-31T04:10:05;3.33;;;1.60;;
9445;SDS011;4761;49.490;10.908;2023-01-31T04:12:43;2.90;;;1.70;;
9445;SDS011;4761;49.490;10.908;2023-01-31T04:15:09;2.90;;;1.60;;
9445;SDS011;4761;49.490;10.908;2023-01-31T04:17:35;3.80;;;1.70;;
9445;SDS011;4761;49.490;10.908;2023-01-31T04:20:00;2.13;;;1.40;;
9445;SDS011;4761;49.490;10.908;2023-01-31T04:22:26;2.17;;;1.23;;
9445;SDS011;4761;49.490;10.908;2023-01-31T04:24:51;3.87;;;1.60;;
9445;SDS011;4761;49.490;10.908;2023-01-31T04:27:17;2.93;;;1.60;;
9445;SDS011;4761;49.490;10.908;2023-01-31T04:29:42;3.40;;;1.63;;
9445;SDS011;4761;49.490;10.908;2023-01-31T04:32:08;3.07;;;1.60;;
9445;SDS011;4761;49.490;10.908;2023-01-31T04:34:33;2.93;;;1.43;;
9445;SDS011;4761;49.490;10.908;2023-01-31T04:36:59;2.90;;;1.53;;
9445;SDS011;4761;49.490;10.908;2023-01-31T04:39:25;2.53;;;1.50;;
9445;SDS011;4761;49.490;10.908;2023-01-31T04:41:51;2.80;;;1.50;;
9445;SDS011;4761;49.490;10.908;2023-01-31T04:44:16;3.03;;;1.93;;
9445;SDS011;4761;49.490;10.908;2023-01-31T04:46:42;1.63;;;1.20;;
9445;SDS011;4761;49.490;10.908;2023-01-31T04:49:07;3.33;;;1.60;;
9445;SDS011;4761;49.490;10.908;2023-01-31T04:51:33;3.83;;;1.90;;
9445;SDS011;4761;49.490;10.908;2023-01-31T04:53:59;2.97;;;1.60;;
9445;SDS011;4761;49.490;10.908;2023-01-31T04:56:25;4.30;;;1.67;;
9445;SDS011;4761;49.490;10.908;2023-01-31T04:58:50;3.43;;;1.60;;
9445;SDS011;4761;49.490;10.908;2023-01-31T05:01:16;2.73;;;1.70;;
9445;SDS011;4761;49.490;10.908;2023-01-31T05:03:41;3.97;;;1.60;;
9445;SDS011;4761;49.490;10.908;2023-01-31T05:06:07;3.67;;;1.53;;
9445;SDS011;4761;49.490;10.908;2023-01-31T05:08:33;2.80;;;1.53;;
9445;SDS011;4761;49.490;10.908;2023-01-31T05:10:59;2.23;;;1.57;;
9445;SDS011;4761;49.490;10.908;2023-01-31T05:13:26;2.87;;;1.63;;
9445;SDS011;4761;49.490;10.908;2023-01-31T05:15:54;5.30;;;2.13;;
9445;SDS011;4761;49.490;10.908;2023-01-31T05:18:21;3.70;;;1.50;;
9445;SDS011;4761;49.490;10.908;2023-01-31T05:20:47;4.70;;;1.70;;
9445;SDS011;4761;49.490;10.908;2023-01-31T05:23:14;3.07;;;1.47;;
9445;SDS011;4761;49.490;10.908;2023-01-31T05:25:40;2.63;;;1.40;;
9445;SDS011;4761;49.490;10.908;2023-01-31T05:28:06;2.40;;;1.40;;
9445;SDS011;4761;49.490;10.908;2023-01-31T05:30:32;3.30;;;1.83;;
9445;SDS011;4761;49.490;10.908;2023-01-31T05:32:57;3.63;;;1.80;;
9445;SDS011;4761;49.490;10.908;2023-01-31T05:35:23;5.10;;;2.20;;
9445;SDS011;4761;49.490;10.908;2023-01-31T05:37:48;2.43;;;1.50;;
9445;SDS011;4761;49.490;10.908;2023-01-31T05:40:15;3.43;;;1.57;;
9445;SDS011;4761;49.490;10.908;2023-01-31T05:42:41;4.80;;;2.10;;
9445;SDS011;4761;49.490;10.908;2023-01-31T05:45:08;2.83;;;1.57;;
9445;SDS011;4761;49.490;10.908;2023-01-31T05:47:34;3.30;;;1.53;;
9445;SDS011;4761;49.490;10.908;2023-01-31T05:50:00;4.00;;;1.70;;
9445;SDS011;4761;49.490;10.908;2023-01-31T05:52:25;3.30;;;1.87;;
9445;SDS011;4761;49.490;10.908;2023-01-31T05:54:51;5.03;;;2.00;;
9445;SDS011;4761;49.490;10.908;2023-01-31T05:57:17;2.90;;;1.50;;
9445;SDS011;4761;49.490;10.908;2023-01-31T05:59:42;3.77;;;1.73;;
9445;SDS011;4761;49.490;10.908;2023-01-31T06:02:08;2.57;;;1.40;;
9445;SDS011;4761;49.490;10.908;2023-01-31T06:04:35;3.70;;;1.50;;
9445;SDS011;4761;49.490;10.908;2023-01-31T06:07:01;2.93;;;1.70;;
9445;SDS011;4761;49.490;10.908;2023-01-31T06:09:27;2.23;;;1.50;;
9445;SDS011;4761;49.490;10.908;2023-01-31T06:11:52;2.77;;;1.50;;
9445;SDS011;4761;49.490;10.908;2023-01-31T06:14:18;4.13;;;1.70;;
9445;SDS011;4761;49.490;10.908;2023-01-31T06:16:43;3.33;;;1.60;;
9445;SDS011;4761;49.490;10.908;2023-01-31T06:19:09;3.57;;;1.50;;
9445;SDS011;4761;49.490;10.908;2023-01-31T06:21:34;2.53;;;1.50;;
9445;SDS011;4761;49.490;10.908;2023-01-31T06:24:00;5.13;;;1.60;;
9445;SDS011;4761;49.490;10.908;2023-01-31T06:26:26;2.27;;;1.47;;
9445;SDS011;4761;49.490;10.908;2023-01-31T06:28:52;2.93;;;1.60;;
9445;SDS011;4761;49.490;10.908;2023-01-31T06:31:17;3.37;;;1.87;;
9445;SDS011;4761;49.490;10.908;2023-01-31T06:33:43;4.57;;;1.80;;
9445;SDS011;4761;49.490;10.908;2023-01-31T06:36:08;3.03;;;1.60;;
9445;SDS011;4761;49.490;10.908;2023-01-31T06:38:34;3.53;;;1.70;;
9445;SDS011;4761;49.490;10.908;2023-01-31T06:40:59;2.40;;;1.40;;
9445;SDS011;4761;49.490;10.908;2023-01-31T06:43:25;4.23;;;1.80;;
9445;SDS011;4761;49.490;10.908;2023-01-31T06:45:50;3.80;;;1.70;;
9445;SDS011;4761;49.490;10.908;2023-01-31T06:48:16;2.67;;;1.60;;
9445;SDS011;4761;49.490;10.908;2023-01-31T06:50:43;2.40;;;1.40;;
9445;SDS011;4761;49.490;10.908;2023-01-31T06:53:09;4.03;;;1.70;;
9445;SDS011;4761;49.490;10.908;2023-01-31T06:55:34;5.47;;;2.17;;
9445;SDS011;4761;49.490;10.908;2023-01-31T06:58:00;4.33;;;1.90;;
9445;SDS011;4761;49.490;10.908;2023-01-31T07:00:25;2.40;;;1.77;;
9445;SDS011;4761;49.490;10.908;2023-01-31T07:02:51;5.23;;;2.10;;
9445;SDS011;4761;49.490;10.908;2023-01-31T07:05:17;3.80;;;1.70;;
9445;SDS011;4761;49.490;10.908;2023-01-31T07:07:44;3.03;;;1.77;;
9445;SDS011;4761;49.490;10.908;2023-01-31T07:10:10;4.13;;;1.70;;
9445;SDS011;4761;49.490;10.908;2023-01-31T07:12:36;7.50;;;3.27;;
9445;SDS011;4761;49.490;10.908;2023-01-31T07:15:01;5.37;;;3.30;;
9445;SDS011;4761;49.490;10.908;2023-01-31T07:17:27;6.73;;;3.50;;
9445;SDS011;4761;49.490;10.908;2023-01-31T07:19:53;6.13;;;3.43;;
9445;SDS011;4761;49.490;10.908;2023-01-31T07:22:18;6.30;;;3.47;;
9445;SDS011;4761;49.490;10.908;2023-01-31T07:24:44;6.13;;;2.93;;
9445;SDS011;4761;49.490;10.908;2023-01-31T07:27:12;6.83;;;3.20;;
9445;SDS011;4761;49.490;10.908;2023-01-31T07:29:38;5.70;;;3.33;;
9445;SDS011;4761;49.490;10.908;2023-01-31T07:32:04;6.57;;;3.40;;
9445;SDS011;4761;49.490;10.908;2023-01-31T07:34:30;8.43;;;3.57;;
9445;SDS011;4761;49.490;10.908;2023-01-31T07:36:55;7.07;;;3.50;;
9445;SDS011;4761;49.490;10.908;2023-01-31T07:39:21;5.17;;;3.13;;
9445;SDS011;4761;49.490;10.908;2023-01-31T07:41:47;5.63;;;3.50;;
9445;SDS011;4761;49.490;10.908;2023-01-31T07:44:13;6.37;;;4.10;;
9445;SDS011;4761;49.490;10.908;2023-01-31T07:46:39;6.13;;;3.60;;
9445;SDS011;4761;49.490;10.908;2023-01-31T07:49:05;6.87;;;3.87;;
9445;SDS011;4761;49.490;10.908;2023-01-31T07:51:31;5.40;;;3.20;;
9445;SDS011;4761;49.490;10.908;2023-01-31T07:53:56;7.53;;;3.90;;
9445;SDS011;4761;49.490;10.908;2023-01-31T07:56:22;6.30;;;3.93;;
9445;SDS011;4761;49.490;10.908;2023-01-31T07:58:48;5.60;;;3.77;;
9445;SDS011;4761;49.490;10.908;2023-01-31T08:01:21;6.90;;;3.67;;
9445;SDS011;4761;49.490;10.908;2023-01-31T08:04:07;6.83;;;3.67;;
9445;SDS011;4761;49.490;10.908;2023-01-31T08:06:34;6.00;;;3.50;;
9445;SDS011;4761;49.490;10.908;2023-01-31T08:09:00;6.90;;;3.60;;
9445;SDS011;4761;49.490;10.908;2023-01-31T08:11:26;6.73;;;4.20;;
9445;SDS011;4761;49.490;10.908;2023-01-31T08:13:52;5.83;;;3.90;;
9445;SDS011;4761;49.490;10.908;2023-01-31T08:16:18;8.07;;;4.33;;
9445;SDS011;4761;49.490;10.908;2023-01-31T08:18:45;5.47;;;3.70;;
9445;SDS011;4761;49.490;10.908;2023-01-31T08:21:12;2.67;;;1.73;;
9445;SDS011;4761;49.490;10.908;2023-01-31T08:23:38;3.13;;;1.70;;
9445;SDS011;4761;49.490;10.908;2023-01-31T08:26:12;2.80;;;1.73;;
9445;SDS011;4761;49.490;10.908;2023-01-31T08:28:40;2.50;;;1.47;;
9445;SDS011;4761;49.490;10.908;2023-01-31T08:31:10;3.10;;;1.90;;
9445;SDS011;4761;49.490;10.908;2023-01-31T08:33:38;4.27;;;2.00;;
9445;SDS011;4761;49.490;10.908;2023-01-31T08:36:10;2.60;;;1.53;;
9445;SDS011;4761;49.490;10.908;2023-01-31T08:38:41;2.87;;;1.83;;
9445;SDS011;4761;49.490;10.908;2023-01-31T08:41:06;2.93;;;1.73;;
9445;SDS011;4761;49.490;10.908;2023-01-31T08:43:32;3.43;;;1.77;;
9445;SDS011;4761;49.490;10.908;2023-01-31T08:45:58;2.73;;;1.40;;
9445;SDS011;4761;49.490;10.908;2023-01-31T08:48:23;2.53;;;1.67;;
9445;SDS011;4761;49.490;10.908;2023-01-31T08:50:49;2.93;;;1.73;;
9445;SDS011;4761;49.490;10.908;2023-01-31T08:53:14;2.70;;;1.80;;
9445;SDS011;4761;49.490;10.908;2023-01-31T08:55:41;2.53;;;1.40;;
9445;SDS011;4761;49.490;10.908;2023-01-31T08:58:06;2.67;;;1.80;;
9445;SDS011;4761;49.490;10.908;2023-01-31T09:00:32;3.50;;;1.87;;
9445;SDS011;4761;49.490;10.908;2023-01-31T09:02:58;3.20;;;1.93;;
9445;SDS011;4761;49.490;10.908;2023-01-31T09:05:25;2.97;;;1.70;;
9445;SDS011;4761;49.490;10.908;2023-01-31T09:07:52;2.73;;;1.80;;
9445;SDS011;4761;49.490;10.908;2023-01-31T09:10:18;4.03;;;1.80;;
9445;SDS011;4761;49.490;10.908;2023-01-31T09:12:45;2.70;;;1.70;;
9445;SDS011;4761;49.490;10.908;2023-01-31T09:15:10;2.30;;;1.43;;
9445;SDS011;4761;49.490;10.908;2023-01-31T09:17:37;2.30;;;1.60;;
9445;SDS011;4761;49.490;10.908;2023-01-31T09:20:03;4.27;;;2.17;;
9445;SDS011;4761;49.490;10.908;2023-01-31T09:22:32;3.63;;;1.90;;
9445;SDS011;4761;49.490;10.908;2023-01-31T09:24:58;3.17;;;1.80;;
9445;SDS011;4761;49.490;10.908;2023-01-31T09:27:24;7.70;;;2.10;;
9445;SDS011;4761;49.490;10.908;2023-01-31T09:29:50;7.00;;;2.60;;
9445;SDS011;4761;49.490;10.908;2023-01-31T09:32:15;4.77;;;2.00;;
9445;SDS011;4761;49.490;10.908;2023-01-31T09:34:41;3.80;;;2.00;;
9445;SDS011;4761;49.490;10.908;2023-01-31T09:37:06;5.30;;;2.00;;
9445;SDS011;4761;49.490;10.908;2023-01-31T09:39:32;5.57;;;2.13;;
9445;SDS011;4761;49.490;10.908;2023-01-31T09:42:12;4.57;;;1.90;;
9445;SDS011;4761;49.490;10.908;2023-01-31T09:44:44;5.67;;;1.97;;
9445;SDS011;4761;49.490;10.908;2023-01-31T09:47:41;3.53;;;2.00;;
9445;SDS011;4761;49.490;10.908;2023-01-31T09:50:17;6.63;;;2.27;;
9445;SDS011;4761;49.490;10.908;2023-01-31T09:52:46;5.00;;;2.40;;
9445;SDS011;4761;49.490;10.908;2023-01-31T09:55:21;4.37;;;2.67;;
9445;SDS011;4761;49.490;10.908;2023-01-31T10:00:31;3.87;;;2.20;;
9445;SDS011;4761;49.490;10.908;2023-01-31T10:03:27;8.90;;;3.13;;
9445;SDS011;4761;49.490;10.908;2023-01-31T10:06:04;4.57;;;2.50;;
9445;SDS011;4761;49.490;10.908;2023-01-31T10:08:41;6.47;;;2.20;;
9445;SDS011;4761;49.490;10.908;2023-01-31T10:11:17;4.90;;;2.60;;
9445;SDS011;4761;49.490;10.908;2023-01-31T10:14:17;6.97;;;2.50;;
9445;SDS011;4761;49.490;10.908;2023-01-31T10:19:31;4.70;;;2.60;;
9445;SDS011;4761;49.490;10.908;2023-01-31T10:22:22;3.00;;;2.00;;
9445;SDS011;4761;49.490;10.908;2023-01-31T10:27:52;3.47;;;2.00;;
9445;SDS011;4761;49.490;10.908;2023-01-31T10:30:27;3.67;;;2.10;;
9445;SDS011;4761;49.490;10.908;2023-01-31T10:33:09;4.20;;;2.20;;
9445;SDS011;4761;49.490;10.908;2023-01-31T10:35:59;4.43;;;2.03;;
9445;SDS011;4761;49.490;10.908;2023-01-31T10:38:32;4.23;;;2.13;;
9445;SDS011;4761;49.490;10.908;2023-01-31T10:41:10;5.50;;;2.00;;
9445;SDS011;4761;49.490;10.908;2023-01-31T10:43:43;3.97;;;2.13;;
9445;SDS011;4761;49.490;10.908;2023-01-31T10:46:14;4.03;;;2.10;;
9445;SDS011;4761;49.490;10.908;2023-01-31T10:48:40;3.77;;;2.00;;
9445;SDS011;4761;49.490;10.908;2023-01-31T10:58:57;4.27;;;2.30;;
9445;SDS011;4761;49.490;10.908;2023-01-31T11:01:25;3.67;;;2.20;;
9445;SDS011;4761;49.490;10.908;2023-01-31T11:03:52;3.80;;;2.00;;
9445;SDS011;4761;49.490;10.908;2023-01-31T11:06:20;3.00;;;1.93;;
9445;SDS011;4761;49.490;10.908;2023-01-31T11:08:53;3.33;;;1.80;;
9445;SDS011;4761;49.490;10.908;2023-01-31T11:11:24;2.60;;;2.00;;
9445;SDS011;4761;49.490;10.908;2023-01-31T11:13:54;3.77;;;2.10;;
9445;SDS011;4761;49.490;10.908;2023-01-31T11:16:26;2.87;;;2.00;;
9445;SDS011;4761;49.490;10.908;2023-01-31T11:18:55;3.17;;;2.13;;
9445;SDS011;4761;49.490;10.908;2023-01-31T11:21:23;4.17;;;2.30;;
9445;SDS011;4761;49.490;10.908;2023-01-31T11:23:51;4.13;;;2.37;;
9445;SDS011;4761;49.490;10.908;2023-01-31T11:26:36;3.97;;;2.27;;
9445;SDS011;4761;49.490;10.908;2023-01-31T11:29:08;3.73;;;2.17;;
9445;SDS011;4761;49.490;10.908;2023-01-31T11:31:42;4.40;;;2.07;;
9445;SDS011;4761;49.490;10.908;2023-01-31T11:34:20;4.43;;;2.60;;
9445;SDS011;4761;49.490;10.908;2023-01-31T11:37:13;5.37;;;3.00;;
9445;SDS011;4761;49.490;10.908;2023-01-31T11:39:40;4.10;;;2.67;;
9445;SDS011;4761;49.490;10.908;2023-01-31T11:42:13;4.37;;;2.80;;
9445;SDS011;4761;49.490;10.908;2023-01-31T11:47:42;5.17;;;3.00;;
9445;SDS011;4761;49.490;10.908;2023-01-31T11:50:18;5.23;;;3.03;;
9445;SDS011;4761;49.490;10.908;2023-01-31T11:52:46;5.23;;;3.17;;
9445;SDS011;4761;49.490;10.908;2023-01-31T11:55:25;5.93;;;2.97;;
9445;SDS011;4761;49.490;10.908;2023-01-31T11:57:55;3.40;;;2.47;;
9445;SDS011;4761;49.490;10.908;2023-01-31T12:00:24;6.07;;;3.43;;
9445;SDS011;4761;49.490;10.908;2023-01-31T12:03:05;7.00;;;4.20;;
9445;SDS011;4761;49.490;10.908;2023-01-31T12:05:41;6.43;;;3.90;;
9445;SDS011;4761;49.490;10.908;2023-01-31T12:13:48;6.13;;;4.17;;
9445;SDS011;4761;49.490;10.908;2023-01-31T12:16:18;6.63;;;3.93;;
9445;SDS011;4761;49.490;10.908;2023-01-31T12:18:56;6.07;;;3.93;;
9445;SDS011;4761;49.490;10.908;2023-01-31T12:21:33;4.53;;;3.40;;
9445;SDS011;4761;49.490;10.908;2023-01-31T12:26:55;6.53;;;3.93;;
9445;SDS011;4761;49.490;10.908;2023-01-31T12:31:59;7.70;;;3.80;;
9445;SDS011;4761;49.490;10.908;2023-01-31T12:37:26;8.77;;;3.73;;
9445;SDS011;4761;49.490;10.908;2023-01-31T12:39:59;7.67;;;3.40;;
9445;SDS011;4761;49.490;10.908;2023-01-31T12:42:45;7.77;;;3.10;;
9445;SDS011;4761;49.490;10.908;2023-01-31T12:48:29;7.47;;;3.10;;
9445;SDS011;4761;49.490;10.908;2023-01-31T12:59:57;6.67;;;3.10;;
9445;SDS011;4761;49.490;10.908;2023-01-31T13:05:23;5.67;;;2.90;;
9445;SDS011;4761;49.490;10.908;2023-01-31T13:07:51;5.43;;;2.80;;
9445;SDS011;4761;49.490;10.908;2023-01-31T13:10:27;3.47;;;2.37;;
9445;SDS011;4761;49.490;10.908;2023-01-31T13:13:10;5.00;;;2.80;;
9445;SDS011;4761;49.490;10.908;2023-01-31T13:15:57;4.20;;;2.50;;
9445;SDS011;4761;49.490;10.908;2023-01-31T13:18:30;4.30;;;2.60;;
9445;SDS011;4761;49.490;10.908;2023-01-31T13:21:00;5.03;;;2.63;;
9445;SDS011;4761;49.490;10.908;2023-01-31T13:26:14;3.57;;;2.13;;
9445;SDS011;4761;49.490;10.908;2023-01-31T13:31:16;4.43;;;2.23;;
9445;SDS011;4761;49.490;10.908;2023-01-31T13:33:50;4.30;;;2.40;;
9445;SDS011;4761;49.490;10.908;2023-01-31T13:36:27;4.37;;;2.30;;
9445;SDS011;4761;49.490;10.908;2023-01-31T13:39:06;5.60;;;2.33;;
9445;SDS011;4761;49.490;10.908;2023-01-31T13:41:38;6.97;;;2.40;;
9445;SDS011;4761;49.490;10.908;2023-01-31T13:44:04;7.30;;;3.00;;
9445;SDS011;4761;49.490;10.908;2023-01-31T13:46:52;7.03;;;2.87;;
9445;SDS011;4761;49.490;10.908;2023-01-31T13:49:25;5.97;;;2.77;;
9445;SDS011;4761;49.490;10.908;2023-01-31T13:52:08;6.40;;;2.97;;
9445;SDS011;4761;49.490;10.908;2023-01-31T13:54:48;5.57;;;2.73;;
9445;SDS011;4761;49.490;10.908;2023-01-31T13:57:24;7.37;;;3.00;;
9445;SDS011;4761;49.490;10.908;2023-01-31T14:00:09;7.17;;;3.00;;
9445;SDS011;4761;49.490;10.908;2023-01-31T14:03:06;5.53;;;2.50;;
9445;SDS011;4761;49.490;10.908;2023-01-31T14:13:49;7.70;;;2.90;;
9445;SDS011;4761;49.490;10.908;2023-01-31T14:27:20;6.57;;;2.70;;
9445;SDS011;4761;49.490;10.908;2023-01-31T14:29:55;5.87;;;2.23;;
9445;SDS011;4761;49.490;10.908;2023-01-31T14:58:23;5.77;;;2.30;;
9445;SDS011;4761;49.490;10.908;2023-01-31T15:00:56;7.77;;;2.70;;
9445;SDS011;4761;49.490;10.908;2023-01-31T15:03:33;7.97;;;1.90;;
9445;SDS011;4761;49.490;10.908;2023-01-31T15:06:08;6.37;;;2.27;;
9445;SDS011;4761;49.490;10.908;2023-01-31T15:08:43;4.00;;;2.00;;
9445;SDS011;4761;49.490;10.908;2023-01-31T15:11:12;8.30;;;2.30;;
9445;SDS011;4761;49.490;10.908;2023-01-31T15:13:50;4.53;;;2.17;;
9445;SDS011;4761;49.490;10.908;2023-01-31T15:18:45;6.37;;;2.47;;
9445;SDS011;4761;49.490;10.908;2023-01-31T15:21:19;5.40;;;1.53;;
9445;SDS011;4761;49.490;10.908;2023-01-31T15:23:48;6.27;;;1.87;;
9445;SDS011;4761;49.490;10.908;2023-01-31T15:26:14;4.17;;;2.07;;
9445;SDS011;4761;49.490;10.908;2023-01-31T15:28:42;5.60;;;2.03;;
9445;SDS011;4761;49.490;10.908;2023-01-31T15:31:13;6.60;;;2.33;;
9445;SDS011;4761;49.490;10.908;2023-01-31T15:33:44;5.93;;;2.20;;
9445;SDS011;4761;49.490;10.908;2023-01-31T15:36:19;2.90;;;1.70;;
9445;SDS011;4761;49.490;10.908;2023-01-31T15:38:57;3.23;;;1.47;;
9445;SDS011;4761;49.490;10.908;2023-01-31T15:41:35;3.73;;;1.77;;
9445;SDS011;4761;49.490;10.908;2023-01-31T15:44:15;3.80;;;2.10;;
9445;SDS011;4761;49.490;10.908;2023-01-31T15:46:49;3.00;;;1.50;;
9445;SDS011;4761;49.490;10.908;2023-01-31T15:49:24;4.47;;;1.70;;
9445;SDS011;4761;49.490;10.908;2023-01-31T15:52:09;5.37;;;1.83;;
9445;SDS011;4761;49.490;10.908;2023-01-31T15:54:37;4.00;;;1.73;;
9445;SDS011;4761;49.490;10.908;2023-01-31T15:57:03;2.60;;;1.50;;
9445;SDS011;4761;49.490;10.908;2023-01-31T15:59:33;4.30;;;1.90;;
9445;SDS011;4761;49.490;10.908;2023-01-31T16:01:59;3.90;;;1.80;;
9445;SDS011;4761;49.490;10.908;2023-01-31T16:04:27;2.23;;;1.30;;
9445;SDS011;4761;49.490;10.908;2023-01-31T16:06:53;3.47;;;1.80;;
9445;SDS011;4761;49.490;10.908;2023-01-31T16:09:23;2.67;;;1.40;;
9445;SDS011;4761;49.490;10.908;2023-01-31T16:11:51;2.60;;;1.50;;
9445;SDS011;4761;49.490;10.908;2023-01-31T16:14:18;3.87;;;1.80;;
9445;SDS011;4761;49.490;10.908;2023-01-31T16:16:46;2.07;;;1.40;;
9445;SDS011;4761;49.490;10.908;2023-01-31T16:19:16;2.50;;;1.47;;
9445;SDS011;4761;49.490;10.908;2023-01-31T16:21:48;3.20;;;1.53;;
9445;SDS011;4761;49.490;10.908;2023-01-31T16:24:14;2.40;;;1.50;;
9445;SDS011;4761;49.490;10.908;2023-01-31T16:26:52;3.97;;;1.40;;
9445;SDS011;4761;49.490;10.908;2023-01-31T16:29:19;1.90;;;1.43;;
9445;SDS011;4761;49.490;10.908;2023-01-31T16:31:51;2.93;;;1.60;;
9445;SDS011;4761;49.490;10.908;2023-01-31T16:34:23;2.63;;;1.40;;
9445;SDS011;4761;49.490;10.908;2023-01-31T16:37:01;2.83;;;1.70;;
9445;SDS011;4761;49.490;10.908;2023-01-31T16:42:06;2.50;;;1.30;;
9445;SDS011;4761;49.490;10.908;2023-01-31T16:44:47;3.67;;;1.57;;
9445;SDS011;4761;49.490;10.908;2023-01-31T16:52:48;4.07;;;1.23;;
9445;SDS011;4761;49.490;10.908;2023-01-31T16:55:16;1.87;;;1.30;;
9445;SDS011;4761;49.490;10.908;2023-01-31T16:57:44;3.13;;;1.40;;
9445;SDS011;4761;49.490;10.908;2023-01-31T17:02:48;2.67;;;1.40;;
9445;SDS011;4761;49.490;10.908;2023-01-31T17:05:17;1.90;;;1.30;;
9445;SDS011;4761;49.490;10.908;2023-01-31T17:07:46;2.53;;;1.50;;
9445;SDS011;4761;49.490;10.908;2023-01-31T17:10:28;3.33;;;1.40;;
9445;SDS011;4761;49.490;10.908;2023-01-31T17:13:02;2.00;;;1.20;;
9445;SDS011;4761;49.490;10.908;2023-01-31T17:15:50;1.60;;;1.30;;
9445;SDS011;4761;49.490;10.908;2023-01-31T17:18:15;2.87;;;1.50;;
9445;SDS011;4761;49.490;10.908;2023-01-31T17:20:43;4.67;;;1.70;;
9445;SDS011;4761;49.490;10.908;2023-01-31T17:23:10;1.83;;;1.23;;
9445;SDS011;4761;49.490;10.908;2023-01-31T17:25:36;1.50;;;1.27;;
9445;SDS011;4761;49.490;10.908;2023-01-31T17:28:03;2.00;;;1.33;;
9445;SDS011;4761;49.490;10.908;2023-01-31T17:30:29;3.73;;;1.60;;
9445;SDS011;4761;49.490;10.908;2023-01-31T17:32:55;1.70;;;1.37;;
9445;SDS011;4761;49.490;10.908;2023-01-31T17:35:23;1.87;;;1.27;;
9445;SDS011;4761;49.490;10.908;2023-01-31T17:37:56;2.17;;;1.50;;
9445;SDS011;4761;49.490;10.908;2023-01-31T17:40:21;2.07;;;1.33;;
9445;SDS011;4761;49.490;10.908;2023-01-31T17:42:48;2.63;;;1.60;;
9445;SDS011;4761;49.490;10.908;2023-01-31T17:45:16;2.87;;;1.40;;